sensor_id;sensor_type;location;lat;lon;timestamp;temperature;humidity
27128;DHT22;14660;49.008;8.390;2023-01-28T00:01:24;4.40;99.90
27128;DHT22;14660;49.008;8.390;2023-01-28T00:03:51;4.40;99.90
27128;DHT22;14660;49.008;8.390;2023-01-28T00:06:19;4.30;99.90
27128;DHT22;14660;49.008;8.390;2023-01-28T00:08:45;4.30;99.90
27128;DHT22;14660;49.008;8.390;2023-01-28T00:11:12;4.50;99.90
27128;DHT22;14660;49.008;8.390;2023-01-28T00:13:40;4.40;99.90
27128;DHT22;14660;49.008;8.390;2023-01-28T00:16:09;4.20;99.90
27128;DHT22;14660;49.008;8.390;2023-01-28T00:18:40;4.10;99.90
27128;DHT22;14660;49.008;8.390;2023-01-28T00:21:10;4.30;99.90
27128;DHT22;14660;49.008;8.390;2023-01-28T00:23:42;4.30;99.90
27128;DHT22;14660;49.008;8.390;2023-01-28T00:26:13;4.40;99.90
27128;DHT22;14660;49.008;8.390;2023-01-28T00:28:41;4.50;99.90
27128;DHT22;14660;49.008;8.390;2023-01-28T00:31:27;4.60;99.90
27128;DHT22;14660;49.008;8.390;2023-01-28T00:33:57;4.70;99.90
27128;DHT22;14660;49.008;8.390;2023-01-28T00:36:27;4.50;99.90
27128;DHT22;14660;49.008;8.390;2023-01-28T00:38:56;4.50;99.90
27128;DHT22;14660;49.008;8.390;2023-01-28T00:41:26;4.50;99.90
27128;DHT22;14660;49.008;8.390;2023-01-28T00:43:53;4.50;99.90
27128;DHT22;14660;49.008;8.390;2023-01-28T00:46:21;4.60;99.90
27128;DHT22;14660;49.008;8.390;2023-01-28T00:48:48;4.50;99.90
27128;DHT22;14660;49.008;8.390;2023-01-28T00:51:16;4.40;99.90
27128;DHT22;14660;49.008;8.390;2023-01-28T00:53:45;4.50;99.90
27128;DHT22;14660;49.008;8.390;2023-01-28T00:56:14;4.30;99.90
27128;DHT22;14660;49.008;8.390;2023-01-28T00:58:42;4.20;99.90
27128;DHT22;14660;49.008;8.390;2023-01-28T01:01:27;4.20;99.90
27128;DHT22;14660;49.008;8.390;2023-01-28T01:03:55;4.20;99.90
27128;DHT22;14660;49.008;8.390;2023-01-28T01:06:34;4.50;99.90
27128;DHT22;14660;49.008;8.390;2023-01-28T01:09:03;4.60;99.90
27128;DHT22;14660;49.008;8.390;2023-01-28T01:11:30;4.40;99.90
27128;DHT22;14660;49.008;8.390;2023-01-28T01:13:58;4.40;99.90
27128;DHT22;14660;49.008;8.390;2023-01-28T01:16:28;4.40;99.90
27128;DHT22;14660;49.008;8.390;2023-01-28T01:18:55;4.50;99.90
27128;DHT22;14660;49.008;8.390;2023-01-28T01:21:25;4.30;99.90
27128;DHT22;14660;49.008;8.390;2023-01-28T01:23:52;4.40;99.90
27128;DHT22;14660;49.008;8.390;2023-01-28T01:26:20;4.30;99.90
27128;DHT22;14660;49.008;8.390;2023-01-28T01:28:56;4.30;99.90
27128;DHT22;14660;49.008;8.390;2023-01-28T01:31:23;4.30;99.90
27128;DHT22;14660;49.008;8.390;2023-01-28T01:33:52;4.50;99.90
27128;DHT22;14660;49.008;8.390;2023-01-28T01:36:19;4.50;99.90
27128;DHT22;14660;49.008;8.390;2023-01-28T01:38:52;4.40;99.90
27128;DHT22;14660;49.008;8.390;2023-01-28T01:41:30;4.50;99.90
27128;DHT22;14660;49.008;8.390;2023-01-28T01:43:59;4.40;99.90
27128;DHT22;14660;49.008;8.390;2023-01-28T01:46:39;4.50;99.90
27128;DHT22;14660;49.008;8.390;2023-01-28T01:49:26;4.40;99.90
27128;DHT22;14660;49.008;8.390;2023-01-28T01:52:07;4.50;99.90
27128;DHT22;14660;49.008;8.390;2023-01-28T01:54:38;4.50;99.90
27128;DHT22;14660;49.008;8.390;2023-01-28T01:57:09;4.40;99.90
27128;DHT22;14660;49.008;8.390;2023-01-28T01:59:38;4.30;99.90
27128;DHT22;14660;49.008;8.390;2023-01-28T02:02:12;4.30;99.90
27128;DHT22;14660;49.008;8.390;2023-01-28T02:04:40;4.10;99.90
27128;DHT22;14660;49.008;8.390;2023-01-28T02:07:08;4.40;99.90
27128;DHT22;14660;49.008;8.390;2023-01-28T02:09:36;4.20;99.90
27128;DHT22;14660;49.008;8.390;2023-01-28T02:12:23;4.30;99.90
27128;DHT22;14660;49.008;8.390;2023-01-28T02:14:55;4.20;99.90
27128;DHT22;14660;49.008;8.390;2023-01-28T02:17:23;4.20;99.90
27128;DHT22;14660;49.008;8.390;2023-01-28T02:20:10;4.20;99.90
27128;DHT22;14660;49.008;8.390;2023-01-28T02:29:04;4.30;99.90
27128;DHT22;14660;49.008;8.390;2023-01-28T02:32:22;4.20;99.90
27128;DHT22;14660;49.008;8.390;2023-01-28T02:35:26;4.50;99.90
27128;DHT22;14660;49.008;8.390;2023-01-28T02:38:07;4.40;99.90
27128;DHT22;14660;49.008;8.390;2023-01-28T02:40:38;4.40;99.90
27128;DHT22;14660;49.008;8.390;2023-01-28T02:43:35;4.40;99.90
27128;DHT22;14660;49.008;8.390;2023-01-28T03:01:59;4.30;99.90
27128;DHT22;14660;49.008;8.390;2023-01-28T03:05:01;4.30;99.90
27128;DHT22;14660;49.008;8.390;2023-01-28T03:07:31;4.20;99.90
27128;DHT22;14660;49.008;8.390;2023-01-28T03:10:02;4.20;99.90
27128;DHT22;14660;49.008;8.390;2023-01-28T03:12:36;4.30;99.90
27128;DHT22;14660;49.008;8.390;2023-01-28T03:15:33;4.40;99.90
27128;DHT22;14660;49.008;8.390;2023-01-28T03:18:45;4.40;99.90
27128;DHT22;14660;49.008;8.390;2023-01-28T03:21:39;4.30;99.90
27128;DHT22;14660;49.008;8.390;2023-01-28T03:24:30;4.20;99.90
27128;DHT22;14660;49.008;8.390;2023-01-28T03:31:18;4.30;99.90
27128;DHT22;14660;49.008;8.390;2023-01-28T03:34:24;4.20;99.90
27128;DHT22;14660;49.008;8.390;2023-01-28T03:37:10;4.30;99.90
27128;DHT22;14660;49.008;8.390;2023-01-28T03:39:39;4.20;99.90
27128;DHT22;14660;49.008;8.390;2023-01-28T03:42:07;4.40;99.90
27128;DHT22;14660;49.008;8.390;2023-01-28T03:44:34;4.30;99.90
27128;DHT22;14660;49.008;8.390;2023-01-28T03:47:22;4.40;99.90
27128;DHT22;14660;49.008;8.390;2023-01-28T03:49:51;4.30;99.90
27128;DHT22;14660;49.008;8.390;2023-01-28T03:52:20;4.30;99.90
27128;DHT22;14660;49.008;8.390;2023-01-28T03:54:48;4.30;99.90
27128;DHT22;14660;49.008;8.390;2023-01-28T03:57:16;4.40;99.90
27128;DHT22;14660;49.008;8.390;2023-01-28T03:59:43;4.40;99.90
27128;DHT22;14660;49.008;8.390;2023-01-28T04:02:10;4.40;99.90
27128;DHT22;14660;49.008;8.390;2023-01-28T04:04:38;4.40;99.90
27128;DHT22;14660;49.008;8.390;2023-01-28T04:07:06;4.40;99.90
27128;DHT22;14660;49.008;8.390;2023-01-28T04:09:36;4.50;99.90
27128;DHT22;14660;49.008;8.390;2023-01-28T04:12:04;4.30;99.90
27128;DHT22;14660;49.008;8.390;2023-01-28T04:14:31;4.30;99.90
27128;DHT22;14660;49.008;8.390;2023-01-28T04:16:58;4.30;99.90
27128;DHT22;14660;49.008;8.390;2023-01-28T04:19:26;4.50;99.90
27128;DHT22;14660;49.008;8.390;2023-01-28T04:21:54;4.50;99.90
27128;DHT22;14660;49.008;8.390;2023-01-28T04:24:22;4.60;99.90
27128;DHT22;14660;49.008;8.390;2023-01-28T04:26:49;4.50;99.90
27128;DHT22;14660;49.008;8.390;2023-01-28T04:29:15;4.40;99.90
27128;DHT22;14660;49.008;8.390;2023-01-28T04:31:42;4.50;99.90
27128;DHT22;14660;49.008;8.390;2023-01-28T04:34:09;4.60;99.90
27128;DHT22;14660;49.008;8.390;2023-01-28T04:36:36;4.80;99.90
27128;DHT22;14660;49.008;8.390;2023-01-28T04:39:03;4.60;99.90
27128;DHT22;14660;49.008;8.390;2023-01-28T04:41:30;4.50;99.90
27128;DHT22;14660;49.008;8.390;2023-01-28T04:43:57;4.50;99.90
27128;DHT22;14660;49.008;8.390;2023-01-28T04:46:24;4.40;99.90
27128;DHT22;14660;49.008;8.390;2023-01-28T04:48:50;4.40;99.90
27128;DHT22;14660;49.008;8.390;2023-01-28T04:51:18;4.40;99.90
27128;DHT22;14660;49.008;8.390;2023-01-28T04:53:45;4.40;99.90
27128;DHT22;14660;49.008;8.390;2023-01-28T04:56:12;4.50;99.90
27128;DHT22;14660;49.008;8.390;2023-01-28T04:58:39;4.40;99.90
27128;DHT22;14660;49.008;8.390;2023-01-28T05:01:05;4.30;99.90
27128;DHT22;14660;49.008;8.390;2023-01-28T05:03:32;4.40;99.90
27128;DHT22;14660;49.008;8.390;2023-01-28T05:05:59;4.30;99.90
27128;DHT22;14660;49.008;8.390;2023-01-28T05:08:26;4.20;99.90
27128;DHT22;14660;49.008;8.390;2023-01-28T05:10:52;4.20;99.90
27128;DHT22;14660;49.008;8.390;2023-01-28T05:13:19;4.40;99.90
27128;DHT22;14660;49.008;8.390;2023-01-28T05:15:50;4.40;99.90
27128;DHT22;14660;49.008;8.390;2023-01-28T05:18:19;4.20;99.90
27128;DHT22;14660;49.008;8.390;2023-01-28T05:20:46;4.50;99.90
27128;DHT22;14660;49.008;8.390;2023-01-28T05:23:13;4.40;99.90
27128;DHT22;14660;49.008;8.390;2023-01-28T05:25:40;4.30;99.90
27128;DHT22;14660;49.008;8.390;2023-01-28T05:28:07;4.20;99.90
27128;DHT22;14660;49.008;8.390;2023-01-28T05:30:34;4.30;99.90
27128;DHT22;14660;49.008;8.390;2023-01-28T05:33:01;4.30;99.90
27128;DHT22;14660;49.008;8.390;2023-01-28T05:35:28;4.00;99.90
27128;DHT22;14660;49.008;8.390;2023-01-28T05:37:54;4.10;99.90
27128;DHT22;14660;49.008;8.390;2023-01-28T05:40:22;4.10;99.90
27128;DHT22;14660;49.008;8.390;2023-01-28T05:42:49;4.30;99.90
27128;DHT22;14660;49.008;8.390;2023-01-28T05:45:16;4.20;99.90
27128;DHT22;14660;49.008;8.390;2023-01-28T05:47:43;4.20;99.90
27128;DHT22;14660;49.008;8.390;2023-01-28T05:50:12;4.40;99.90
27128;DHT22;14660;49.008;8.390;2023-01-28T05:52:39;4.40;99.90
27128;DHT22;14660;49.008;8.390;2023-01-28T05:55:08;4.30;99.90
27128;DHT22;14660;49.008;8.390;2023-01-28T05:57:43;4.20;99.90
27128;DHT22;14660;49.008;8.390;2023-01-28T06:00:11;4.20;99.90
27128;DHT22;14660;49.008;8.390;2023-01-28T06:02:38;4.10;99.90
27128;DHT22;14660;49.008;8.390;2023-01-28T06:05:05;4.00;99.90
27128;DHT22;14660;49.008;8.390;2023-01-28T06:07:33;4.20;99.90
27128;DHT22;14660;49.008;8.390;2023-01-28T06:10:00;4.10;99.90
27128;DHT22;14660;49.008;8.390;2023-01-28T06:12:27;4.00;99.90
27128;DHT22;14660;49.008;8.390;2023-01-28T06:14:54;3.90;99.90
27128;DHT22;14660;49.008;8.390;2023-01-28T06:17:19;4.10;99.90
27128;DHT22;14660;49.008;8.390;2023-01-28T06:19:47;4.10;99.90
27128;DHT22;14660;49.008;8.390;2023-01-28T06:22:14;3.90;99.90
27128;DHT22;14660;49.008;8.390;2023-01-28T06:24:41;4.10;99.90
27128;DHT22;14660;49.008;8.390;2023-01-28T06:27:09;4.20;99.90
27128;DHT22;14660;49.008;8.390;2023-01-28T06:29:35;4.30;99.90
27128;DHT22;14660;49.008;8.390;2023-01-28T06:32:02;4.10;99.90
27128;DHT22;14660;49.008;8.390;2023-01-28T06:34:29;4.10;99.90
27128;DHT22;14660;49.008;8.390;2023-01-28T06:36:56;4.00;99.90
27128;DHT22;14660;49.008;8.390;2023-01-28T06:39:23;4.20;99.90
27128;DHT22;14660;49.008;8.390;2023-01-28T06:41:52;4.00;99.90
27128;DHT22;14660;49.008;8.390;2023-01-28T06:44:19;4.00;99.90
27128;DHT22;14660;49.008;8.390;2023-01-28T06:46:46;4.20;99.90
27128;DHT22;14660;49.008;8.390;2023-01-28T06:49:13;4.20;99.90
27128;DHT22;14660;49.008;8.390;2023-01-28T06:51:42;4.10;99.90
27128;DHT22;14660;49.008;8.390;2023-01-28T06:54:09;4.10;99.90
27128;DHT22;14660;49.008;8.390;2023-01-28T06:56:36;4.40;99.90
27128;DHT22;14660;49.008;8.390;2023-01-28T06:59:02;4.50;99.90
27128;DHT22;14660;49.008;8.390;2023-01-28T07:01:28;4.30;99.90
27128;DHT22;14660;49.008;8.390;2023-01-28T07:03:55;4.40;99.90
27128;DHT22;14660;49.008;8.390;2023-01-28T07:06:22;4.20;99.90
27128;DHT22;14660;49.008;8.390;2023-01-28T07:08:49;4.20;99.90
27128;DHT22;14660;49.008;8.390;2023-01-28T07:11:16;4.00;99.90
27128;DHT22;14660;49.008;8.390;2023-01-28T07:13:43;3.90;99.90
27128;DHT22;14660;49.008;8.390;2023-01-28T07:16:10;4.10;99.90
27128;DHT22;14660;49.008;8.390;2023-01-28T07:18:37;4.30;99.90
27128;DHT22;14660;49.008;8.390;2023-01-28T07:21:04;4.20;99.90
27128;DHT22;14660;49.008;8.390;2023-01-28T07:23:30;4.30;99.90
27128;DHT22;14660;49.008;8.390;2023-01-28T07:26:00;4.50;99.90
27128;DHT22;14660;49.008;8.390;2023-01-28T07:28:27;4.30;99.90
27128;DHT22;14660;49.008;8.390;2023-01-28T07:30:54;4.50;99.90
27128;DHT22;14660;49.008;8.390;2023-01-28T07:33:21;4.60;99.90
27128;DHT22;14660;49.008;8.390;2023-01-28T07:35:48;4.50;99.90
27128;DHT22;14660;49.008;8.390;2023-01-28T07:38:15;4.50;99.90
27128;DHT22;14660;49.008;8.390;2023-01-28T07:40:42;4.60;99.90
27128;DHT22;14660;49.008;8.390;2023-01-28T07:43:09;4.50;99.90
27128;DHT22;14660;49.008;8.390;2023-01-28T07:45:36;4.40;99.90
27128;DHT22;14660;49.008;8.390;2023-01-28T07:48:11;4.30;99.90
27128;DHT22;14660;49.008;8.390;2023-01-28T07:50:37;4.30;99.90
27128;DHT22;14660;49.008;8.390;2023-01-28T07:53:08;4.60;99.90
27128;DHT22;14660;49.008;8.390;2023-01-28T07:55:37;4.60;99.90
27128;DHT22;14660;49.008;8.390;2023-01-28T07:58:06;4.60;99.90
27128;DHT22;14660;49.008;8.390;2023-01-28T08:00:35;4.40;99.90
27128;DHT22;14660;49.008;8.390;2023-01-28T08:03:05;4.40;99.90
27128;DHT22;14660;49.008;8.390;2023-01-28T08:05:45;4.20;99.90
27128;DHT22;14660;49.008;8.390;2023-01-28T08:08:12;4.00;99.90
27128;DHT22;14660;49.008;8.390;2023-01-28T08:10:40;3.90;99.90
27128;DHT22;14660;49.008;8.390;2023-01-28T08:13:08;4.00;99.90
27128;DHT22;14660;49.008;8.390;2023-01-28T08:15:35;4.00;99.90
27128;DHT22;14660;49.008;8.390;2023-01-28T08:18:03;4.00;99.90
27128;DHT22;14660;49.008;8.390;2023-01-28T08:20:30;4.00;99.90
27128;DHT22;14660;49.008;8.390;2023-01-28T08:23:26;4.20;99.90
27128;DHT22;14660;49.008;8.390;2023-01-28T08:25:54;4.30;99.90
27128;DHT22;14660;49.008;8.390;2023-01-28T08:28:21;4.30;99.90
27128;DHT22;14660;49.008;8.390;2023-01-28T08:30:47;4.20;99.90
27128;DHT22;14660;49.008;8.390;2023-01-28T08:33:14;4.00;99.90
27128;DHT22;14660;49.008;8.390;2023-01-28T08:35:43;4.10;99.90
27128;DHT22;14660;49.008;8.390;2023-01-28T08:38:12;3.90;99.90
27128;DHT22;14660;49.008;8.390;2023-01-28T08:40:40;4.20;99.90
27128;DHT22;14660;49.008;8.390;2023-01-28T08:43:07;4.20;99.90
27128;DHT22;14660;49.008;8.390;2023-01-28T08:45:34;4.20;99.90
27128;DHT22;14660;49.008;8.390;2023-01-28T08:48:05;4.20;99.90
27128;DHT22;14660;49.008;8.390;2023-01-28T08:50:39;4.30;99.90
27128;DHT22;14660;49.008;8.390;2023-01-28T08:53:14;4.20;99.90
27128;DHT22;14660;49.008;8.390;2023-01-28T08:55:41;4.30;99.90
27128;DHT22;14660;49.008;8.390;2023-01-28T08:58:11;4.20;99.90
27128;DHT22;14660;49.008;8.390;2023-01-28T09:00:39;4.30;99.90
27128;DHT22;14660;49.008;8.390;2023-01-28T09:03:07;4.40;99.90
27128;DHT22;14660;49.008;8.390;2023-01-28T09:05:37;4.30;99.90
27128;DHT22;14660;49.008;8.390;2023-01-28T09:08:06;4.20;99.90
27128;DHT22;14660;49.008;8.390;2023-01-28T09:10:33;4.20;99.90
27128;DHT22;14660;49.008;8.390;2023-01-28T09:13:20;4.30;99.90
27128;DHT22;14660;49.008;8.390;2023-01-28T09:15:47;4.40;99.90
27128;DHT22;14660;49.008;8.390;2023-01-28T09:18:14;4.30;99.90
27128;DHT22;14660;49.008;8.390;2023-01-28T09:20:40;4.40;99.90
27128;DHT22;14660;49.008;8.390;2023-01-28T09:23:07;4.20;99.90
27128;DHT22;14660;49.008;8.390;2023-01-28T09:25:34;4.30;99.90
27128;DHT22;14660;49.008;8.390;2023-01-28T09:28:02;4.30;99.90
27128;DHT22;14660;49.008;8.390;2023-01-28T09:30:28;4.20;99.90
27128;DHT22;14660;49.008;8.390;2023-01-28T09:32:56;4.20;99.90
27128;DHT22;14660;49.008;8.390;2023-01-28T09:35:24;4.20;99.90
27128;DHT22;14660;49.008;8.390;2023-01-28T09:37:50;4.20;99.90
27128;DHT22;14660;49.008;8.390;2023-01-28T09:40:37;4.40;99.90
27128;DHT22;14660;49.008;8.390;2023-01-28T09:46:12;4.30;99.90
27128;DHT22;14660;49.008;8.390;2023-01-28T09:48:49;4.30;99.90
27128;DHT22;14660;49.008;8.390;2023-01-28T10:03:35;4.50;99.90
27128;DHT22;14660;49.008;8.390;2023-01-28T10:09:28;4.50;99.90
27128;DHT22;14660;49.008;8.390;2023-01-28T10:18:09;4.70;99.90
27128;DHT22;14660;49.008;8.390;2023-01-28T10:20:45;4.50;99.90
27128;DHT22;14660;49.008;8.390;2023-01-28T10:23:40;4.40;99.90
27128;DHT22;14660;49.008;8.390;2023-01-28T10:26:33;4.40;99.90
27128;DHT22;14660;49.008;8.390;2023-01-28T10:29:14;4.50;99.90
27128;DHT22;14660;49.008;8.390;2023-01-28T10:32:33;4.50;99.90
27128;DHT22;14660;49.008;8.390;2023-01-28T10:35:00;4.60;99.90
27128;DHT22;14660;49.008;8.390;2023-01-28T10:37:33;4.20;99.90
27128;DHT22;14660;49.008;8.390;2023-01-28T10:40:02;4.10;99.90
27128;DHT22;14660;49.008;8.390;2023-01-28T10:42:34;4.20;99.90
27128;DHT22;14660;49.008;8.390;2023-01-28T10:48:12;4.40;99.90
27128;DHT22;14660;49.008;8.390;2023-01-28T10:50:49;4.40;99.90
27128;DHT22;14660;49.008;8.390;2023-01-28T10:53:17;4.20;99.90
27128;DHT22;14660;49.008;8.390;2023-01-28T10:56:03;4.50;99.90
27128;DHT22;14660;49.008;8.390;2023-01-28T10:58:35;4.50;99.90
27128;DHT22;14660;49.008;8.390;2023-01-28T11:01:06;4.30;99.90
27128;DHT22;14660;49.008;8.390;2023-01-28T11:03:50;4.30;99.90
27128;DHT22;14660;49.008;8.390;2023-01-28T11:06:28;4.30;99.90
27128;DHT22;14660;49.008;8.390;2023-01-28T11:08:54;4.40;99.90
27128;DHT22;14660;49.008;8.390;2023-01-28T11:11:26;4.40;99.90
27128;DHT22;14660;49.008;8.390;2023-01-28T11:13:53;4.30;99.90
27128;DHT22;14660;49.008;8.390;2023-01-28T11:16:24;4.40;99.90
27128;DHT22;14660;49.008;8.390;2023-01-28T11:19:11;4.30;99.90
27128;DHT22;14660;49.008;8.390;2023-01-28T11:21:40;4.30;99.90
27128;DHT22;14660;49.008;8.390;2023-01-28T11:24:27;4.40;99.90
27128;DHT22;14660;49.008;8.390;2023-01-28T11:27:13;4.50;99.90
27128;DHT22;14660;49.008;8.390;2023-01-28T11:29:42;4.50;99.90
27128;DHT22;14660;49.008;8.390;2023-01-28T11:32:24;4.60;99.90
27128;DHT22;14660;49.008;8.390;2023-01-28T11:34:53;4.50;99.90
27128;DHT22;14660;49.008;8.390;2023-01-28T11:37:25;4.50;99.90
27128;DHT22;14660;49.008;8.390;2023-01-28T11:40:22;4.40;99.90
27128;DHT22;14660;49.008;8.390;2023-01-28T11:42:54;4.60;99.90
27128;DHT22;14660;49.008;8.390;2023-01-28T11:45:39;4.50;99.90
27128;DHT22;14660;49.008;8.390;2023-01-28T11:48:31;4.50;99.90
27128;DHT22;14660;49.008;8.390;2023-01-28T12:08:35;4.40;99.90
27128;DHT22;14660;49.008;8.390;2023-01-28T12:14:33;4.50;99.90
27128;DHT22;14660;49.008;8.390;2023-01-28T12:41:19;5.00;99.90
27128;DHT22;14660;49.008;8.390;2023-01-28T12:44:07;5.00;99.90
27128;DHT22;14660;49.008;8.390;2023-01-28T12:46:54;5.10;99.90
27128;DHT22;14660;49.008;8.390;2023-01-28T12:49:48;5.00;99.90
27128;DHT22;14660;49.008;8.390;2023-01-28T12:52:44;4.90;99.90
27128;DHT22;14660;49.008;8.390;2023-01-28T12:55:44;4.90;99.90
27128;DHT22;14660;49.008;8.390;2023-01-28T12:58:35;5.00;99.90
27128;DHT22;14660;49.008;8.390;2023-01-28T13:01:12;4.90;99.90
27128;DHT22;14660;49.008;8.390;2023-01-28T13:04:33;5.10;99.90
27128;DHT22;14660;49.008;8.390;2023-01-28T13:06:57;5.00;99.90
27128;DHT22;14660;49.008;8.390;2023-01-28T13:09:25;5.10;99.90
27128;DHT22;14660;49.008;8.390;2023-01-28T13:11:56;5.30;99.90
27128;DHT22;14660;49.008;8.390;2023-01-28T13:14:30;5.20;99.90
27128;DHT22;14660;49.008;8.390;2023-01-28T13:17:11;5.30;99.90
27128;DHT22;14660;49.008;8.390;2023-01-28T13:19:43;5.30;99.90
27128;DHT22;14660;49.008;8.390;2023-01-28T13:22:35;5.30;99.90
27128;DHT22;14660;49.008;8.390;2023-01-28T13:25:25;5.50;99.90
27128;DHT22;14660;49.008;8.390;2023-01-28T13:28:21;5.30;99.90
27128;DHT22;14660;49.008;8.390;2023-01-28T13:33:35;5.10;99.90
27128;DHT22;14660;49.008;8.390;2023-01-28T13:36:07;5.20;99.90
27128;DHT22;14660;49.008;8.390;2023-01-28T13:38:36;5.20;99.90
27128;DHT22;14660;49.008;8.390;2023-01-28T13:41:03;5.20;99.90
27128;DHT22;14660;49.008;8.390;2023-01-28T13:43:50;5.10;99.90
27128;DHT22;14660;49.008;8.390;2023-01-28T13:46:29;5.10;99.90
27128;DHT22;14660;49.008;8.390;2023-01-28T13:48:58;5.20;99.90
27128;DHT22;14660;49.008;8.390;2023-01-28T13:51:36;5.20;99.90
27128;DHT22;14660;49.008;8.390;2023-01-28T13:54:11;5.00;99.90
27128;DHT22;14660;49.008;8.390;2023-01-28T14:11:58;5.00;99.90
27128;DHT22;14660;49.008;8.390;2023-01-28T14:17:54;5.00;99.90
27128;DHT22;14660;49.008;8.390;2023-01-28T14:20:42;4.90;99.90
27128;DHT22;14660;49.008;8.390;2023-01-28T14:23:20;4.90;99.90
27128;DHT22;14660;49.008;8.390;2023-01-28T14:28:57;5.00;99.90
27128;DHT22;14660;49.008;8.390;2023-01-28T14:31:38;5.10;99.90
27128;DHT22;14660;49.008;8.390;2023-01-28T14:37:15;5.00;99.90
27128;DHT22;14660;49.008;8.390;2023-01-28T14:40:05;5.20;99.90
27128;DHT22;14660;49.008;8.390;2023-01-28T14:42:39;5.10;99.90
27128;DHT22;14660;49.008;8.390;2023-01-28T15:00:40;5.00;99.90
27128;DHT22;14660;49.008;8.390;2023-01-28T15:03:17;5.00;99.90
27128;DHT22;14660;49.008;8.390;2023-01-28T15:05:43;4.90;99.90
27128;DHT22;14660;49.008;8.390;2023-01-28T15:08:31;4.80;99.90
27128;DHT22;14660;49.008;8.390;2023-01-28T15:10:59;4.70;99.90
27128;DHT22;14660;49.008;8.390;2023-01-28T15:13:36;4.60;99.90
27128;DHT22;14660;49.008;8.390;2023-01-28T15:16:04;4.60;99.90
27128;DHT22;14660;49.008;8.390;2023-01-28T15:18:42;4.60;99.90
27128;DHT22;14660;49.008;8.390;2023-01-28T15:21:10;4.50;99.90
27128;DHT22;14660;49.008;8.390;2023-01-28T15:23:41;4.60;99.90
27128;DHT22;14660;49.008;8.390;2023-01-28T15:26:16;4.60;99.90
27128;DHT22;14660;49.008;8.390;2023-01-28T15:28:44;4.60;99.90
27128;DHT22;14660;49.008;8.390;2023-01-28T15:34:14;4.60;99.90
27128;DHT22;14660;49.008;8.390;2023-01-28T15:36:47;4.50;99.90
27128;DHT22;14660;49.008;8.390;2023-01-28T15:39:16;4.50;99.90
27128;DHT22;14660;49.008;8.390;2023-01-28T15:42:23;4.50;99.90
27128;DHT22;14660;49.008;8.390;2023-01-28T15:44:55;4.20;99.90
27128;DHT22;14660;49.008;8.390;2023-01-28T15:47:43;4.30;99.90
27128;DHT22;14660;49.008;8.390;2023-01-28T15:50:32;4.40;99.90
27128;DHT22;14660;49.008;8.390;2023-01-28T15:53:00;4.20;99.90
27128;DHT22;14660;49.008;8.390;2023-01-28T15:55:44;4.30;99.90
27128;DHT22;14660;49.008;8.390;2023-01-28T15:58:30;4.50;99.90
27128;DHT22;14660;49.008;8.390;2023-01-28T16:01:17;4.50;99.90
27128;DHT22;14660;49.008;8.390;2023-01-28T16:03:47;4.50;99.90
27128;DHT22;14660;49.008;8.390;2023-01-28T16:06:36;4.30;99.90
27128;DHT22;14660;49.008;8.390;2023-01-28T16:09:09;4.30;99.90
27128;DHT22;14660;49.008;8.390;2023-01-28T16:12:11;4.30;99.90
27128;DHT22;14660;49.008;8.390;2023-01-28T16:15:03;4.30;99.90
27128;DHT22;14660;49.008;8.390;2023-01-28T16:17:41;4.20;99.90
27128;DHT22;14660;49.008;8.390;2023-01-28T16:20:26;4.20;99.90
27128;DHT22;14660;49.008;8.390;2023-01-28T16:22:57;4.20;99.90
27128;DHT22;14660;49.008;8.390;2023-01-28T16:25:31;4.30;99.90
27128;DHT22;14660;49.008;8.390;2023-01-28T16:28:18;4.50;99.90
27128;DHT22;14660;49.008;8.390;2023-01-28T16:30:45;4.40;99.90
27128;DHT22;14660;49.008;8.390;2023-01-28T16:33:18;4.40;99.90
27128;DHT22;14660;49.008;8.390;2023-01-28T16:35:50;4.30;99.90
27128;DHT22;14660;49.008;8.390;2023-01-28T16:38:17;4.10;99.90
27128;DHT22;14660;49.008;8.390;2023-01-28T16:40:45;4.40;99.90
27128;DHT22;14660;49.008;8.390;2023-01-28T16:43:13;4.50;99.90
27128;DHT22;14660;49.008;8.390;2023-01-28T16:45:41;4.40;99.90
27128;DHT22;14660;49.008;8.390;2023-01-28T16:48:08;4.40;99.90
27128;DHT22;14660;49.008;8.390;2023-01-28T16:50:41;4.50;99.90
27128;DHT22;14660;49.008;8.390;2023-01-28T16:53:25;4.50;99.90
27128;DHT22;14660;49.008;8.390;2023-01-28T16:55:54;4.60;99.90
27128;DHT22;14660;49.008;8.390;2023-01-28T16:58:23;4.60;99.90
27128;DHT22;14660;49.008;8.390;2023-01-28T17:00:51;4.50;99.90
27128;DHT22;14660;49.008;8.390;2023-01-28T17:03:18;4.40;99.90
27128;DHT22;14660;49.008;8.390;2023-01-28T17:05:45;4.50;99.90
27128;DHT22;14660;49.008;8.390;2023-01-28T17:08:12;4.40;99.90
27128;DHT22;14660;49.008;8.390;2023-01-28T17:10:43;4.50;99.90
27128;DHT22;14660;49.008;8.390;2023-01-28T17:13:10;4.30;99.90
27128;DHT22;14660;49.008;8.390;2023-01-28T17:15:39;4.40;99.90
27128;DHT22;14660;49.008;8.390;2023-01-28T17:18:09;4.20;99.90
27128;DHT22;14660;49.008;8.390;2023-01-28T17:20:37;4.20;99.90
27128;DHT22;14660;49.008;8.390;2023-01-28T17:23:07;4.30;99.90
27128;DHT22;14660;49.008;8.390;2023-01-28T17:25:41;4.30;99.90
27128;DHT22;14660;49.008;8.390;2023-01-28T17:28:09;4.20;99.90
27128;DHT22;14660;49.008;8.390;2023-01-28T17:30:39;4.20;99.90
27128;DHT22;14660;49.008;8.390;2023-01-28T17:33:09;4.20;99.90
27128;DHT22;14660;49.008;8.390;2023-01-28T17:35:36;4.30;99.90
27128;DHT22;14660;49.008;8.390;2023-01-28T17:38:04;4.30;99.90
27128;DHT22;14660;49.008;8.390;2023-01-28T17:40:31;4.20;99.90
27128;DHT22;14660;49.008;8.390;2023-01-28T17:42:58;4.30;99.90
27128;DHT22;14660;49.008;8.390;2023-01-28T17:45:25;4.30;99.90
27128;DHT22;14660;49.008;8.390;2023-01-28T17:47:50;4.30;99.90
27128;DHT22;14660;49.008;8.390;2023-01-28T17:50:21;4.10;99.90
27128;DHT22;14660;49.008;8.390;2023-01-28T17:52:53;4.20;99.90
27128;DHT22;14660;49.008;8.390;2023-01-28T17:55:20;4.30;99.90
27128;DHT22;14660;49.008;8.390;2023-01-28T17:57:47;4.30;99.90
27128;DHT22;14660;49.008;8.390;2023-01-28T18:00:14;4.00;99.90
27128;DHT22;14660;49.008;8.390;2023-01-28T18:02:41;4.00;99.90
27128;DHT22;14660;49.008;8.390;2023-01-28T18:05:08;4.20;99.90
27128;DHT22;14660;49.008;8.390;2023-01-28T18:07:34;4.20;99.90
27128;DHT22;14660;49.008;8.390;2023-01-28T18:10:01;4.10;99.90
27128;DHT22;14660;49.008;8.390;2023-01-28T18:12:28;4.10;99.90
27128;DHT22;14660;49.008;8.390;2023-01-28T18:14:56;4.10;99.90
27128;DHT22;14660;49.008;8.390;2023-01-28T18:17:22;4.00;99.90
27128;DHT22;14660;49.008;8.390;2023-01-28T18:19:52;4.10;99.90
27128;DHT22;14660;49.008;8.390;2023-01-28T18:22:19;4.30;99.90
27128;DHT22;14660;49.008;8.390;2023-01-28T18:24:53;4.20;99.90
27128;DHT22;14660;49.008;8.390;2023-01-28T18:27:20;4.20;99.90
27128;DHT22;14660;49.008;8.390;2023-01-28T18:29:48;4.20;99.90
27128;DHT22;14660;49.008;8.390;2023-01-28T18:32:18;4.10;99.90
27128;DHT22;14660;49.008;8.390;2023-01-28T18:34:45;4.00;99.90
27128;DHT22;14660;49.008;8.390;2023-01-28T18:37:12;3.90;99.90
27128;DHT22;14660;49.008;8.390;2023-01-28T18:39:40;4.00;99.90
27128;DHT22;14660;49.008;8.390;2023-01-28T18:42:08;4.00;99.90
27128;DHT22;14660;49.008;8.390;2023-01-28T18:44:35;3.90;99.90